Time;durP1;ratioP1;P1;durP2;ratioP2;P2;SDS_P1;SDS_P2;PMS_P1;PMS_P2;Temp;Humidity;BMP_temperature;BMP_pressure;BME280_temperature;BME280_humidity;BME280_pressure;Samples;Min_cycle;Max_cycle;Signal;HPM_P1;HPM_P2
2023/09/18 00:01:45;;;;;;;4.97;3.70;;;;;;;24.23;54.30;98112.38;6864239;28;20318;-85
2023/09/18 00:05:07;;;;;;;4.10;3.70;;;;;;;24.28;54.52;98104.84;6864492;28;20450;-86
2023/09/18 00:08:29;;;;;;;4.73;3.50;;;;;;;24.17;54.41;98088.81;6864514;28;20357;-86
2023/09/18 00:11:50;;;;;;;5.03;3.87;;;;;;;24.25;54.23;98105.44;6863197;28;20302;-85
2023/09/18 00:15:13;;;;;;;6.13;3.97;;;;;;;24.20;54.70;98113.00;6864135;28;20257;-85
2023/09/18 00:18:35;;;;;;;4.00;3.60;;;;;;;24.15;54.63;98100.19;6863860;28;20261;-85
2023/09/18 00:22:00;;;;;;;3.90;3.50;;;;;;;24.25;54.14;98099.13;6862969;28;20360;-85
2023/09/18 00:25:22;;;;;;;3.93;3.53;;;;;;;24.39;54.06;98109.00;6863563;28;20653;-84
2023/09/18 00:28:44;;;;;;;4.30;3.67;;;;;;;24.29;54.19;98102.88;6864027;28;20664;-85
2023/09/18 00:32:07;;;;;;;3.80;3.40;;;;;;;24.33;54.02;98090.94;6863986;28;20321;-84
2023/09/18 00:35:29;;;;;;;4.23;3.77;;;;;;;24.36;53.73;98098.56;6865268;28;20242;-85
2023/09/18 00:38:50;;;;;;;4.37;3.90;;;;;;;24.03;55.01;98079.78;6865482;28;20245;-84
2023/09/18 00:42:13;;;;;;;4.30;3.90;;;;;;;23.20;55.63;97983.78;6865260;28;20244;-84
2023/09/18 00:45:35;;;;;;;6.30;3.87;;;;;;;23.32;57.05;98063.06;6865738;28;20276;-84
2023/09/18 00:48:58;;;;;;;4.30;3.90;;;;;;;22.85;58.15;98033.97;6865152;28;20306;-84
2023/09/18 00:52:20;;;;;;;5.37;4.00;;;;;;;23.28;57.72;98068.38;6861414;28;20705;-84
2023/09/18 00:55:42;;;;;;;3.63;3.33;;;;;;;23.58;56.92;98069.69;6865204;28;20206;-84
2023/09/18 00:59:04;;;;;;;4.27;3.70;;;;;;;23.46;56.69;98028.94;6864898;28;20301;-85
2023/09/18 01:02:26;;;;;;;4.13;3.73;;;;;;;24.05;55.40;98070.09;6860748;28;20281;-84
2023/09/18 01:05:50;;;;;;;5.10;3.70;;;;;;;24.09;55.00;98071.13;6862739;28;20239;-84
2023/09/18 01:09:14;;;;;;;6.20;3.70;;;;;;;23.69;56.21;98074.69;6865608;28;20213;-84
2023/09/18 01:12:41;;;;;;;4.77;3.87;;;;;;;23.40;56.75;98056.84;6861233;28;20254;-83
2023/09/18 01:16:05;;;;;;;4.07;3.67;;;;;;;23.09;57.62;98031.88;6865925;28;20296;-84
2023/09/18 01:19:37;;;;;;;4.63;3.80;;;;;;;23.15;58.68;98058.16;6866300;28;20296;-84
2023/09/18 01:23:00;;;;;;;4.77;3.90;;;;;;;23.01;58.55;98056.50;6865690;28;20239;-84
2023/09/18 01:26:22;;;;;;;5.57;3.80;;;;;;;23.27;57.96;98022.75;6865848;28;20802;-84
2023/09/18 01:29:43;;;;;;;4.23;3.80;;;;;;;23.56;57.07;98037.00;6865917;28;20306;-84
2023/09/18 01:33:05;;;;;;;4.27;3.83;;;;;;;23.69;56.20;98051.84;6865053;28;20319;-84
2023/09/18 01:36:26;;;;;;;8.10;4.30;;;;;;;22.96;58.59;98053.84;6864735;28;20304;-86
2023/09/18 01:39:51;;;;;;;4.87;3.27;;;;;;;23.35;58.03;98063.28;6861917;28;20214;-85
2023/09/18 01:43:12;;;;;;;3.83;3.53;;;;;;;23.57;57.34;98048.81;6862487;28;20322;-86
2023/09/18 01:46:35;;;;;;;4.27;3.80;;;;;;;23.67;57.20;98043.91;6863686;28;20382;-83
2023/09/18 01:49:57;;;;;;;58.63;52.27;;;;;;;23.95;56.92;98061.25;6862250;28;20224;-83
2023/09/18 01:53:18;;;;;;;9.67;7.17;;;;;;;23.97;56.71;98070.00;6862030;28;20293;-86
2023/09/18 01:56:41;;;;;;;5.20;3.87;;;;;;;23.84;56.71;98082.63;6863392;28;20218;-83
2023/09/18 02:00:07;;;;;;;8.60;5.87;;;;;;;24.09;56.40;98120.69;6863277;28;20209;-84
2023/09/18 02:03:29;;;;;;;5.33;4.77;;;;;;;24.12;56.13;98193.63;6862342;28;20237;-83
2023/09/18 02:06:51;;;;;;;4.17;3.67;;;;;;;23.22;58.10;98088.03;6863201;28;20667;-83
2023/09/18 02:10:13;;;;;;;4.10;3.50;;;;;;;23.56;56.55;98119.56;6864134;28;20215;-82
2023/09/18 02:13:36;;;;;;;4.03;3.67;;;;;;;24.58;53.73;98119.88;6863116;28;20240;-82
2023/09/18 02:16:58;;;;;;;3.50;3.20;;;;;;;25.01;51.55;98085.16;6864405;28;20230;-82
2023/09/18 02:20:19;;;;;;;6.83;3.77;;;;;;;25.24;51.35;98067.47;6862709;28;20302;-82
2023/09/18 02:23:41;;;;;;;7.30;3.83;;;;;;;25.19;54.83;98089.66;6863680;28;20363;-82
2023/09/18 02:27:05;;;;;;;7.23;3.40;;;;;;;25.01;55.83;98028.03;6863157;28;20299;-82
2023/09/18 02:30:28;;;;;;;8.63;3.90;;;;;;;25.11;54.94;98044.31;6862633;28;20216;-83
2023/09/18 02:33:49;;;;;;;9.67;3.67;;;;;;;24.95;57.29;98023.00;6863576;28;20239;-82
2023/09/18 02:37:11;;;;;;;9.17;3.70;;;;;;;25.00;55.36;97995.25;6863453;28;20204;-83
2023/09/18 02:40:33;;;;;;;5.47;3.50;;;;;;;25.22;55.30;97945.53;6864015;28;20233;-82
2023/09/18 02:43:54;;;;;;;8.10;3.23;;;;;;;25.09;55.50;97983.16;6864688;28;20362;-83
2023/09/18 02:47:17;;;;;;;4.87;3.63;;;;;;;24.93;58.17;97990.19;6864021;28;20317;-82
2023/09/18 02:50:39;;;;;;;8.87;4.13;;;;;;;24.80;58.50;98006.84;6863805;28;20239;-83
2023/09/18 02:54:01;;;;;;;5.70;4.07;;;;;;;24.46;58.98;98009.31;6865790;28;20931;-83
2023/09/18 02:57:22;;;;;;;11.40;3.70;;;;;;;24.73;58.84;98010.03;6889386;28;20300;-82
2023/09/18 03:00:44;;;;;;;5.57;3.40;;;;;;;24.86;58.58;98022.13;6893902;28;20714;-83
2023/09/18 03:04:07;;;;;;;9.13;4.57;;;;;;;24.13;61.14;98036.28;6895700;28;20327;-83
2023/09/18 03:07:29;;;;;;;6.60;4.23;;;;;;;24.06;61.54;98022.13;6897622;28;20356;-83
2023/09/18 03:10:50;;;;;;;6.30;4.00;;;;;;;24.17;61.80;98031.81;6895507;28;20236;-83
2023/09/18 03:14:12;;;;;;;7.20;4.40;;;;;;;23.57;63.90;98033.13;6895239;28;20705;-83
2023/09/18 03:17:33;;;;;;;4.60;4.20;;;;;;;24.04;62.93;98046.44;6895172;28;20302;-83
2023/09/18 03:20:56;;;;;;;10.07;4.13;;;;;;;24.21;61.94;98054.03;6894542;28;20697;-83
2023/09/18 03:24:19;;;;;;;8.53;4.67;;;;;;;23.87;62.74;98046.25;6896360;28;20234;-83
2023/09/18 03:27:40;;;;;;;10.53;4.97;;;;;;;23.63;63.96;98051.16;6896578;28;20220;-82
2023/09/18 03:31:04;;;;;;;6.63;4.27;;;;;;;24.34;61.71;98056.75;6895157;28;20347;-82
2023/09/18 03:34:27;;;;;;;8.83;4.70;;;;;;;24.40;61.08;98061.00;6894623;28;20226;-82
2023/09/18 03:37:51;;;;;;;7.37;3.87;;;;;;;24.29;60.50;98056.88;6895348;28;20215;-83
2023/09/18 03:41:12;;;;;;;8.10;4.37;;;;;;;24.01;61.57;98057.25;6895082;28;20696;-83
2023/09/18 03:44:34;;;;;;;8.70;4.00;;;;;;;23.85;62.01;98075.19;6895342;28;20323;-83
2023/09/18 03:47:55;;;;;;;6.00;4.63;;;;;;;23.90;62.09;98073.16;6897470;28;20699;-83
2023/09/18 03:51:18;;;;;;;5.40;4.20;;;;;;;23.71;62.31;98086.22;6895339;28;20298;-82
2023/09/18 03:54:41;;;;;;;6.67;4.10;;;;;;;24.08;61.24;98104.47;6895936;28;20205;-83
2023/09/18 03:58:04;;;;;;;7.23;4.30;;;;;;;24.00;61.25;98097.75;6895218;28;20246;-83
2023/09/18 04:01:25;;;;;;;7.67;4.53;;;;;;;24.19;60.36;98142.50;6893780;28;20218;-84
2023/09/18 04:04:47;;;;;;;8.50;4.60;;;;;;;24.30;60.40;98160.44;6894401;28;20666;-84
2023/09/18 04:08:08;;;;;;;7.33;4.33;;;;;;;24.10;60.97;98180.16;6893730;28;20301;-82
2023/09/18 04:11:32;;;;;;;8.47;4.40;;;;;;;24.25;60.85;98179.03;6892240;28;20231;-84
2023/09/18 04:14:53;;;;;;;6.83;4.43;;;;;;;23.65;61.42;98120.47;6893398;28;20212;-84
2023/09/18 04:18:15;;;;;;;9.63;5.00;;;;;;;23.50;63.04;98142.78;6894498;28;20216;-83
2023/09/18 04:21:36;;;;;;;7.17;4.43;;;;;;;23.78;62.86;98158.19;6893668;28;20365;-84
2023/09/18 04:24:58;;;;;;;6.47;4.77;;;;;;;23.56;63.92;98166.34;6894221;28;20234;-84
2023/09/18 04:28:22;;;;;;;8.20;4.37;;;;;;;24.10;61.80;98136.09;6894223;28;20265;-84
2023/09/18 04:31:44;;;;;;;6.60;4.77;;;;;;;24.15;61.77;98138.75;6892836;28;20229;-84
2023/09/18 04:35:08;;;;;;;8.67;4.93;;;;;;;23.35;63.59;98115.56;6893869;28;20240;-84
2023/09/18 04:38:29;;;;;;;10.57;4.70;;;;;;;22.52;66.29;98100.19;6887704;28;21274;-82
2023/09/18 04:41:51;;;;;;;7.23;4.23;;;;;;;23.14;64.80;98084.00;6865619;28;20354;-84
2023/09/18 04:45:14;;;;;;;8.47;3.70;;;;;;;23.87;62.01;98079.31;6867199;28;20263;-84
2023/09/18 04:48:36;;;;;;;5.47;4.27;;;;;;;23.86;62.39;98054.78;6867974;28;20692;-84
2023/09/18 04:51:57;;;;;;;7.80;4.30;;;;;;;23.95;62.41;98039.22;6865760;28;20312;-83
2023/09/18 04:55:19;;;;;;;7.07;4.33;;;;;;;24.13;61.20;98025.28;6866376;28;20283;-84
2023/09/18 04:58:40;;;;;;;10.30;4.83;;;;;;;23.89;61.13;98041.25;6866816;28;20782;-84
2023/09/18 05:02:04;;;;;;;8.77;4.90;;;;;;;23.47;63.17;98016.81;6865072;28;20244;-84
2023/09/18 05:05:26;;;;;;;8.93;4.40;;;;;;;23.84;61.54;98055.09;6867712;28;20345;-84
2023/09/18 05:08:47;;;;;;;6.03;4.07;;;;;;;23.82;60.98;98065.59;6866430;28;20295;-84
2023/09/18 05:12:13;;;;;;;7.70;4.13;;;;;;;23.58;61.34;98061.44;6865733;28;20261;-83
2023/09/18 05:15:37;;;;;;;6.17;4.23;;;;;;;23.31;63.53;98078.75;6867509;28;20268;-84
2023/09/18 05:19:00;;;;;;;8.87;3.90;;;;;;;23.24;61.71;98064.59;6868289;28;20217;-84
2023/09/18 05:22:22;;;;;;;8.80;3.93;;;;;;;23.64;60.19;98079.47;6866136;28;20306;-84
2023/09/18 05:25:44;;;;;;;10.03;3.60;;;;;;;23.92;59.65;98065.44;6867216;28;20386;-84
2023/09/18 05:29:05;;;;;;;8.40;3.83;;;;;;;24.03;58.97;98046.75;6867223;28;20202;-83
2023/09/18 05:32:27;;;;;;;7.73;4.00;;;;;;;24.28;58.87;98068.19;6866661;28;20239;-84
2023/09/18 05:35:50;;;;;;;7.70;3.70;;;;;;;24.17;58.72;98078.63;6867017;28;20821;-82
2023/09/18 05:39:12;;;;;;;5.13;3.50;;;;;;;24.31;58.46;98093.19;6866196;28;20663;-84
2023/09/18 05:42:34;;;;;;;9.83;3.57;;;;;;;24.40;57.52;98096.00;6865092;28;20268;-84
2023/09/18 05:45:55;;;;;;;7.50;3.80;;;;;;;24.47;56.98;98091.69;6866925;28;20657;-84
2023/09/18 05:49:17;;;;;;;8.53;3.67;;;;;;;23.93;57.02;98058.78;6866799;28;20256;-84
2023/09/18 05:52:40;;;;;;;9.03;3.57;;;;;;;24.28;56.91;98087.47;6865456;28;20387;-83
2023/09/18 05:56:03;;;;;;;10.27;4.40;;;;;;;24.15;57.19;98105.69;6866744;28;20750;-83
2023/09/18 05:59:25;;;;;;;12.80;3.40;;;;;;;24.36;55.63;98042.66;6866340;28;20659;-83
2023/09/18 06:02:46;;;;;;;8.10;3.70;;;;;;;24.84;54.97;98107.13;6866240;28;20245;-84
2023/09/18 06:06:08;;;;;;;7.30;3.17;;;;;;;24.96;54.50;98093.56;6866133;28;20808;-84
2023/09/18 06:09:31;;;;;;;6.40;3.50;;;;;;;24.87;54.28;98081.66;6867873;28;20199;-84
2023/09/18 06:12:54;;;;;;;5.80;3.37;;;;;;;24.13;55.78;98087.84;6893878;28;20354;-82
2023/09/18 06:16:15;;;;;;;6.90;3.03;;;;;;;23.95;56.30;98062.03;6894671;28;20208;-83
2023/09/18 06:19:37;;;;;;;6.17;3.10;;;;;;;24.41;55.39;98084.69;6894218;28;20203;-84
2023/09/18 06:22:58;;;;;;;6.00;3.53;;;;;;;24.88;54.35;98056.53;6894249;28;20314;-84
2023/09/18 06:26:21;;;;;;;5.20;3.53;;;;;;;25.09;55.37;98067.84;6895125;28;20349;-83
2023/09/18 06:29:43;;;;;;;8.77;3.53;;;;;;;25.23;54.35;98061.09;6893801;28;20210;-84
2023/09/18 06:33:04;;;;;;;5.67;3.13;;;;;;;25.22;55.07;98066.94;6895204;28;20318;-84
2023/09/18 06:36:26;;;;;;;5.03;3.13;;;;;;;25.32;54.90;98084.06;6892876;28;20222;-84
2023/09/18 06:39:47;;;;;;;6.70;3.33;;;;;;;25.32;55.34;98083.25;6892695;28;20227;-83
2023/09/18 06:43:10;;;;;;;7.97;3.10;;;;;;;24.76;55.15;98083.84;6889835;28;20267;-82
2023/09/18 06:46:32;;;;;;;4.63;2.73;;;;;;;24.85;54.32;98089.44;6910500;28;20230;-83
2023/09/18 06:49:53;;;;;;;9.47;3.87;;;;;;;24.83;55.05;98098.00;6907977;28;20215;-85
2023/09/18 06:53:15;;;;;;;6.67;3.70;;;;;;;25.42;54.08;98097.59;6887923;28;20780;-84
2023/09/18 06:56:36;;;;;;;9.67;3.40;;;;;;;25.21;55.02;98090.16;6888792;28;20205;-84
2023/09/18 06:59:59;;;;;;;7.37;3.50;;;;;;;24.98;56.14;98092.13;6890315;28;20284;-85
2023/09/18 07:03:20;;;;;;;8.80;4.07;;;;;;;24.85;56.79;98109.56;6888750;28;20781;-84
2023/09/18 07:06:42;;;;;;;6.50;3.17;;;;;;;24.29;56.80;98109.22;6877477;28;20322;-83
2023/09/18 07:10:04;;;;;;;7.93;3.10;;;;;;;24.71;55.93;98066.63;6861970;28;20610;-84
2023/09/18 07:13:26;;;;;;;8.93;4.10;;;;;;;25.09;56.48;98106.47;6860998;28;20768;-84
2023/09/18 07:16:49;;;;;;;5.73;3.10;;;;;;;25.10;56.71;98122.72;6862788;28;20266;-84
2023/09/18 07:20:13;;;;;;;4.53;2.53;;;;;;;25.62;53.98;98119.13;6862491;28;20268;-82
2023/09/18 07:23:36;;;;;;;7.17;2.77;;;;;;;24.70;53.80;98070.50;6862755;28;20229;-83
2023/09/18 07:26:58;;;;;;;7.23;2.67;;;;;;;24.70;55.45;98107.16;6863360;28;20236;-84
2023/09/18 07:30:21;;;;;;;6.17;2.50;;;;;;;24.99;54.39;98109.47;6862829;28;20553;-84
2023/09/18 07:33:44;;;;;;;4.20;2.50;;;;;;;25.26;53.14;98109.38;6863205;28;20236;-84
2023/09/18 07:37:06;;;;;;;6.57;2.90;;;;;;;25.23;54.10;98118.22;6888544;28;20210;-85
2023/09/18 07:40:27;;;;;;;7.50;2.90;;;;;;;25.14;53.37;98100.81;6872906;28;20584;-85
2023/09/18 07:43:49;;;;;;;5.57;2.47;;;;;;;25.95;51.97;98123.16;6864784;28;20224;-82
2023/09/18 07:47:10;;;;;;;6.50;2.43;;;;;;;25.70;51.64;98151.47;6864088;28;20228;-84
2023/09/18 07:50:33;;;;;;;5.73;2.43;;;;;;;25.62;52.24;98165.25;6867139;28;20690;-84
2023/09/18 07:53:55;;;;;;;8.73;2.60;;;;;;;24.29;53.13;98062.38;6866562;28;20894;-84
2023/09/18 07:57:16;;;;;;;4.43;2.70;;;;;;;25.31;53.65;98170.75;6881484;28;20298;-84
2023/09/18 08:00:39;;;;;;;8.43;2.50;;;;;;;25.04;53.26;98178.31;6894267;28;20698;-85
2023/09/18 08:04:00;;;;;;;5.33;2.77;;;;;;;25.31;53.48;98175.47;6893834;28;20236;-84
2023/09/18 08:07:23;;;;;;;4.20;2.60;;;;;;;25.40;52.28;98110.91;6893999;28;20370;-85
2023/09/18 08:10:45;;;;;;;4.77;2.60;;;;;;;26.55;50.68;98184.94;6892143;28;20270;-85
2023/09/18 08:14:06;;;;;;;7.20;2.30;;;;;;;26.58;49.62;98178.78;6892785;28;20837;-85
2023/09/18 08:17:28;;;;;;;5.97;2.17;;;;;;;26.50;50.36;98162.16;6892171;28;20298;-84
2023/09/18 08:20:49;;;;;;;3.83;2.37;;;;;;;27.33;49.47;98197.69;6891445;28;20343;-85
2023/09/18 08:24:12;;;;;;;7.73;2.40;;;;;;;27.71;47.73;98204.16;6892088;28;20264;-85
2023/09/18 08:27:36;;;;;;;4.77;2.10;;;;;;;27.55;46.91;98203.03;6891455;28;20315;-85
2023/09/18 08:30:59;;;;;;;6.37;2.47;;;;;;;27.69;46.32;98228.56;6890945;28;20201;-84
2023/09/18 08:34:20;;;;;;;3.17;1.80;;;;;;;26.64;48.93;98230.03;6884869;28;20835;-85
2023/09/18 08:37:42;;;;;;;4.57;2.50;;;;;;;26.58;49.06;98261.75;6864196;28;20263;-84
2023/09/18 08:41:05;;;;;;;3.23;1.63;;;;;;;26.20;49.08;98257.03;6864401;28;20664;-84
2023/09/18 08:44:28;;;;;;;5.47;1.80;;;;;;;26.04;49.86;98244.75;6864794;28;20316;-85
2023/09/18 08:47:50;;;;;;;3.57;1.70;;;;;;;25.85;50.10;98233.94;6865007;28;20835;-86
2023/09/18 08:51:12;;;;;;;3.13;1.60;;;;;;;26.22;48.69;98266.63;6863972;28;20798;-85
2023/09/18 08:54:34;;;;;;;6.10;1.87;;;;;;;25.67;50.60;98262.56;6864539;28;20698;-85
2023/09/18 08:57:59;;;;;;;2.10;1.30;;;;;;;25.75;50.21;98258.22;6864800;28;20352;-85
2023/09/18 09:01:22;;;;;;;3.07;1.60;;;;;;;25.06;51.88;98273.44;6863588;28;20571;-85
2023/09/18 09:04:43;;;;;;;1.63;1.50;;;;;;;24.64;54.89;98262.81;6864573;28;20220;-85
2023/09/18 09:08:05;;;;;;;3.33;1.60;;;;;;;24.84;54.26;98267.06;6864736;28;20232;-85
2023/09/18 09:11:27;;;;;;;5.03;1.70;;;;;;;25.10;53.58;98277.22;6862931;28;20251;-84
2023/09/18 09:15:02;;;;;;;3.10;1.43;;;;;;;25.57;52.48;98254.56;6863939;28;20317;-85
2023/09/18 09:18:25;;;;;;;3.23;1.50;;;;;;;25.78;52.53;98286.03;6864100;28;20288;-85
2023/09/18 09:21:46;;;;;;;4.30;2.10;;;;;;;25.24;53.66;98294.56;6865361;28;20279;-84
2023/09/18 09:25:26;;;;;;;4.87;1.73;;;;;;;25.05;54.75;98255.25;6866253;28;20235;-85
2023/09/18 09:28:49;;;;;;;3.70;1.80;;;;;;;25.12;55.71;98285.19;6866424;28;20208;-84
2023/09/18 09:32:16;;;;;;;3.60;2.10;;;;;;;24.97;55.96;98257.94;6866482;28;20390;-83
2023/09/18 09:35:39;;;;;;;2.23;1.60;;;;;;;24.05;56.40;98268.41;6868102;28;20211;-84
2023/09/18 09:39:02;;;;;;;2.97;1.80;;;;;;;24.64;56.26;98254.53;6865594;28;20205;-83
2023/09/18 09:42:24;;;;;;;2.90;1.60;;;;;;;24.72;55.58;98245.53;6866429;28;20239;-83
2023/09/18 09:45:47;;;;;;;2.47;1.60;;;;;;;24.03;55.75;98245.88;6866166;28;20240;-84
2023/09/18 09:49:10;;;;;;;1.63;1.43;;;;;;;24.63;56.91;98269.44;6865803;28;20243;-84
2023/09/18 09:52:34;;;;;;;3.17;1.50;;;;;;;24.92;57.50;98277.34;6865709;28;20319;-84
2023/09/18 09:55:56;;;;;;;2.17;1.57;;;;;;;24.21;56.84;98242.19;6866970;28;20305;-84
2023/09/18 09:59:18;;;;;;;2.87;1.60;;;;;;;24.01;57.46;98244.53;6866982;28;20307;-83
2023/09/18 10:02:40;;;;;;;2.83;1.60;;;;;;;25.03;57.20;98243.72;6866067;28;20268;-84
2023/09/18 10:06:06;;;;;;;1.90;1.50;;;;;;;25.21;54.44;98223.41;6866590;28;20713;-83
2023/09/18 10:09:29;;;;;;;3.57;1.73;;;;;;;25.62;54.42;98235.09;6866005;28;20230;-84
2023/09/18 10:12:51;;;;;;;3.10;1.60;;;;;;;25.73;54.96;98255.78;6865531;28;20264;-84
2023/09/18 10:16:13;;;;;;;5.03;1.73;;;;;;;25.68;55.77;98271.66;6865392;28;20295;-83
2023/09/18 10:19:41;;;;;;;2.30;1.87;;;;;;;25.81;55.88;98293.69;6866122;28;20218;-83
2023/09/18 10:23:07;;;;;;;4.50;1.90;;;;;;;24.78;57.17;98211.19;6864883;28;20364;-84
2023/09/18 10:26:30;;;;;;;2.53;1.70;;;;;;;25.36;56.06;98258.13;6866029;28;20329;-83
2023/09/18 10:29:54;;;;;;;1.57;1.43;;;;;;;25.31;55.44;98274.81;6865270;28;20299;-84
2023/09/18 10:33:16;;;;;;;2.23;1.40;;;;;;;24.97;55.92;98261.53;6864968;28;20231;-85
2023/09/18 10:36:38;;;;;;;4.67;1.90;;;;;;;24.98;56.28;98304.53;6864796;28;20231;-84
2023/09/18 10:40:01;;;;;;;4.23;1.80;;;;;;;24.96;56.34;98345.38;6863446;28;20588;-85
2023/09/18 10:43:23;;;;;;;2.07;1.50;;;;;;;25.10;55.94;98337.06;6865322;28;20236;-84
2023/09/18 10:46:45;;;;;;;3.37;1.80;;;;;;;24.05;55.83;98270.31;6864876;28;20234;-84
2023/09/18 10:50:07;;;;;;;1.63;1.43;;;;;;;24.71;55.58;98345.13;6865198;28;20299;-84
2023/09/18 10:53:29;;;;;;;5.53;2.00;;;;;;;24.03;57.03;98334.00;6864772;28;20725;-84
2023/09/18 10:56:52;;;;;;;3.27;1.80;;;;;;;24.06;56.03;98294.81;6865205;28;20428;-84
2023/09/18 11:00:16;;;;;;;3.67;1.40;;;;;;;23.84;56.30;98299.34;6884356;28;20243;-83
2023/09/18 11:03:39;;;;;;;2.03;1.50;;;;;;;23.66;57.32;98322.25;6893190;28;20708;-83
2023/09/18 11:07:05;;;;;;;4.90;1.70;;;;;;;24.00;55.81;98307.06;6893332;28;20276;-84
2023/09/18 11:10:27;;;;;;;1.97;1.50;;;;;;;23.29;57.78;98270.00;6892562;28;20584;-84
2023/09/18 11:13:54;;;;;;;3.17;1.63;;;;;;;23.76;57.26;98278.81;6892432;28;20245;-86
2023/09/18 11:17:35;;;;;;;1.83;1.50;;;;;;;24.08;57.16;98280.75;6892702;28;20196;-84
2023/09/18 11:21:10;;;;;;;1.80;1.70;;;;;;;24.03;56.61;98225.75;6892201;28;20215;-84
2023/09/18 11:24:32;;;;;;;4.13;1.57;;;;;;;24.34;57.29;98276.38;6898349;28;20202;-83
2023/09/18 11:27:55;;;;;;;1.83;1.63;;;;;;;24.21;56.81;98275.25;6897369;28;20238;-84
2023/09/18 11:31:21;;;;;;;3.30;1.40;;;;;;;24.03;57.86;98250.53;6897927;28;20200;-84
2023/09/18 11:34:43;;;;;;;4.00;1.77;;;;;;;23.78;58.53;98260.06;6898268;28;20553;-83
2023/09/18 11:38:06;;;;;;;3.17;1.70;;;;;;;23.43;58.84;98270.88;6899068;28;20210;-84
2023/09/18 11:41:29;;;;;;;2.67;1.63;;;;;;;23.35;62.16;98277.03;6897466;28;20212;-82
2023/09/18 11:44:51;;;;;;;2.97;1.90;;;;;;;23.68;62.00;98292.47;6892369;28;20201;-83
2023/09/18 11:48:14;;;;;;;2.93;1.70;;;;;;;23.63;61.07;98276.84;6872072;28;20269;-83
2023/09/18 11:51:36;;;;;;;3.50;2.03;;;;;;;23.73;60.41;98240.06;6870668;28;20256;-84
2023/09/18 11:55:00;;;;;;;1.93;1.70;;;;;;;23.94;59.17;98258.69;6871413;28;20207;-83
2023/09/18 11:58:23;;;;;;;2.67;1.53;;;;;;;24.18;59.90;98272.31;6872656;28;20221;-85
2023/09/18 12:01:46;;;;;;;3.00;2.33;;;;;;;24.39;59.57;98298.31;6869348;28;20236;-84
2023/09/18 12:05:15;;;;;;;1.60;1.50;;;;;;;24.31;60.62;98280.53;6890848;28;20200;-84
2023/09/18 12:08:36;;;;;;;3.13;1.60;;;;;;;24.08;60.28;98234.72;6897601;28;20226;-83
2023/09/18 12:12:03;;;;;;;3.53;2.00;;;;;;;24.03;61.53;98276.16;6895121;28;20233;-85
2023/09/18 12:15:25;;;;;;;2.00;1.80;;;;;;;24.20;60.71;98278.31;6867445;28;20241;-84
2023/09/18 12:18:48;;;;;;;1.70;1.60;;;;;;;24.44;59.90;98270.66;6866795;28;20706;-83
2023/09/18 12:22:12;;;;;;;1.97;1.53;;;;;;;24.45;59.94;98302.59;6865832;28;20242;-85
2023/09/18 12:25:34;;;;;;;2.87;1.70;;;;;;;24.70;59.37;98313.97;6866402;28;20265;-85
2023/09/18 12:28:56;;;;;;;2.20;1.87;;;;;;;24.12;60.31;98279.81;6866429;28;20705;-84
2023/09/18 12:32:19;;;;;;;3.10;1.47;;;;;;;24.06;59.57;98211.38;6865806;28;20318;-84
2023/09/18 12:35:42;;;;;;;2.10;1.80;;;;;;;24.29;58.76;98259.94;6867087;28;20257;-85
2023/09/18 12:39:06;;;;;;;2.83;1.67;;;;;;;24.71;57.49;98265.97;6867745;28;20205;-84
2023/09/18 12:42:28;;;;;;;2.00;1.30;;;;;;;24.65;56.35;98253.41;6866085;28;20251;-83
2023/09/18 12:45:50;;;;;;;2.80;1.83;;;;;;;24.61;56.21;98262.59;6892367;28;20290;-83
2023/09/18 12:49:19;;;;;;;1.87;1.50;;;;;;;24.96;55.62;98240.56;6893895;28;20235;-83
2023/09/18 12:52:40;;;;;;;1.87;1.47;;;;;;;24.89;56.03;98255.94;6876674;28;20310;-85
2023/09/18 12:56:12;;;;;;;1.80;1.40;;;;;;;25.69;54.38;98251.19;6866387;28;20351;-84
2023/09/18 12:59:35;;;;;;;2.43;1.73;;;;;;;26.04;53.17;98273.22;6867083;28;20282;-84
2023/09/18 13:02:57;;;;;;;2.80;1.70;;;;;;;26.31;51.70;98275.75;6865764;28;20228;-84
2023/09/18 13:06:19;;;;;;;1.77;1.60;;;;;;;26.19;51.89;98267.25;6866946;28;20265;-84
2023/09/18 13:09:41;;;;;;;2.43;1.60;;;;;;;26.38;51.81;98267.84;6866631;28;20291;-84
2023/09/18 13:13:05;;;;;;;3.40;1.70;;;;;;;25.28;53.97;98245.91;6862278;28;20383;-85
2023/09/18 13:16:27;;;;;;;2.93;1.67;;;;;;;26.09;53.28;98226.13;6872432;28;20201;-84
2023/09/18 13:19:48;;;;;;;6.13;1.93;;;;;;;26.11;52.28;98203.66;6869553;28;20662;-84
2023/09/18 13:23:10;;;;;;;2.83;1.40;;;;;;;26.75;50.45;98242.44;6864710;28;20757;-83
2023/09/18 13:26:32;;;;;;;4.30;1.57;;;;;;;26.06;52.19;98223.97;6893105;28;20204;-84
2023/09/18 13:29:55;;;;;;;2.93;1.50;;;;;;;26.22;50.99;98222.41;6892334;28;20224;-84
2023/09/18 13:33:18;;;;;;;2.00;1.40;;;;;;;27.06;49.60;98207.13;6892009;28;20311;-84
2023/09/18 13:36:41;;;;;;;2.87;2.00;;;;;;;26.15;49.41;98135.56;6891864;28;20239;-84
2023/09/18 13:40:06;;;;;;;2.70;1.60;;;;;;;25.76;52.42;98219.25;6891983;28;20228;-84
2023/09/18 13:43:30;;;;;;;1.87;1.60;;;;;;;26.63;50.01;98238.66;6890784;28;20220;-85
2023/09/18 13:46:53;;;;;;;2.50;1.47;;;;;;;27.05;49.71;98244.25;6891034;28;20225;-85
2023/09/18 13:50:15;;;;;;;2.57;1.50;;;;;;;26.54;49.07;98143.81;6891250;28;20200;-83
2023/09/18 13:53:36;;;;;;;2.07;1.50;;;;;;;27.12;49.13;98213.31;6890454;28;20278;-85
2023/09/18 13:56:58;;;;;;;3.07;1.70;;;;;;;27.45;48.97;98218.06;6882888;28;20218;-84
2023/09/18 14:00:20;;;;;;;3.43;1.70;;;;;;;26.99;49.17;98201.28;6863970;28;20622;-84
2023/09/18 14:03:45;;;;;;;2.53;1.70;;;;;;;27.36;48.14;98231.06;6863456;28;20233;-85
2023/09/18 14:07:07;;;;;;;2.73;1.70;;;;;;;27.12;48.22;98216.91;6863335;28;20236;-85
2023/09/18 14:10:28;;;;;;;1.87;1.57;;;;;;;26.97;47.59;98217.41;6862645;28;20699;-85
2023/09/18 14:13:50;;;;;;;4.20;2.03;;;;;;;27.31;46.73;98197.22;6863040;28;20233;-85
2023/09/18 14:17:12;;;;;;;2.30;1.70;;;;;;;27.89;46.11;98198.22;6862954;28;20336;-85
2023/09/18 14:20:35;;;;;;;1.90;1.60;;;;;;;27.66;46.51;98198.78;6862759;28;20325;-83
2023/09/18 14:23:56;;;;;;;2.67;1.67;;;;;;;27.55;46.17;98191.97;6852995;28;20261;-86
2023/09/18 14:27:18;;;;;;;4.63;1.93;;;;;;;27.36;46.70;98180.44;6836076;29;20369;-84
2023/09/18 14:30:39;;;;;;;2.80;1.60;;;;;;;27.52;46.20;98179.59;6837496;29;20291;-86
2023/09/18 14:34:01;;;;;;;2.47;1.57;;;;;;;27.17;45.88;98110.75;6835870;29;20248;-86
2023/09/18 14:37:24;;;;;;;3.10;1.73;;;;;;;27.86;46.18;98173.16;6835598;29;20246;-85
2023/09/18 14:40:47;;;;;;;3.97;2.03;;;;;;;27.76;46.33;98188.16;6851060;28;20295;-85
2023/09/18 14:44:09;;;;;;;2.73;1.80;;;;;;;27.93;46.00;98179.81;6852778;28;20269;-81
2023/09/18 14:47:31;;;;;;;5.47;1.80;;;;;;;27.96;45.86;98184.66;6853183;28;20318;-86
2023/09/18 14:50:54;;;;;;;4.40;2.20;;;;;;;28.10;44.70;98184.44;6864686;28;20296;-86
2023/09/18 14:54:17;;;;;;;3.47;1.90;;;;;;;27.86;44.99;98160.13;6865658;28;20221;-86
2023/09/18 14:57:39;;;;;;;2.50;2.00;;;;;;;28.02;44.88;98154.81;6865042;28;20228;-84
2023/09/18 15:01:00;;;;;;;2.70;2.00;;;;;;;27.91;44.62;98164.66;6864263;28;20587;-84
2023/09/18 15:04:22;;;;;;;2.47;1.50;;;;;;;27.70;44.53;98119.38;6862993;28;20228;-86
2023/09/18 15:07:44;;;;;;;3.00;1.60;;;;;;;27.70;45.35;98153.47;6868745;28;20240;-86
2023/09/18 15:11:07;;;;;;;3.33;1.90;;;;;;;27.64;45.02;98106.88;6890914;28;20233;-82
2023/09/18 15:14:28;;;;;;;2.37;1.40;;;;;;;27.68;44.77;98118.91;6885723;28;20246;-85
2023/09/18 15:17:52;;;;;;;4.00;1.90;;;;;;;26.94;45.89;98123.97;6865540;28;20279;-85
2023/09/18 15:21:13;;;;;;;2.77;1.40;;;;;;;27.37;45.79;98108.09;6863050;28;20209;-84
2023/09/18 15:24:35;;;;;;;3.90;1.87;;;;;;;27.82;44.73;98112.03;6861483;28;20329;-84
2023/09/18 15:27:57;;;;;;;1.73;1.43;;;;;;;27.79;44.77;98121.00;6864640;28;20275;-85
2023/09/18 15:31:19;;;;;;;4.20;1.70;;;;;;;27.72;44.80;98125.44;6862996;28;20299;-84
2023/09/18 15:34:41;;;;;;;1.40;1.30;;;;;;;27.49;45.34;98071.44;6864511;28;20220;-86
2023/09/18 15:38:03;;;;;;;2.93;2.03;;;;;;;27.16;45.33;98090.59;6864435;28;20221;-85
2023/09/18 15:41:24;;;;;;;1.47;1.33;;;;;;;27.54;44.82;98102.50;6863568;28;20705;-85
2023/09/18 15:44:47;;;;;;;2.67;1.70;;;;;;;27.95;44.20;98121.28;6865306;28;20277;-85
2023/09/18 15:48:09;;;;;;;2.00;1.50;;;;;;;27.60;44.42;98103.16;6863482;28;20320;-85
2023/09/18 15:51:30;;;;;;;1.90;1.57;;;;;;;27.72;44.27;98106.84;6864454;28;20236;-85
2023/09/18 15:54:52;;;;;;;3.13;1.70;;;;;;;27.89;44.19;98120.66;6864636;28;20207;-85